createdAt,value
2017-12-06T00:01:32.488Z,79.28
2017-12-06T00:03:59.971Z,78.93
2017-12-06T00:06:27.440Z,79.55
2017-12-06T00:08:54.942Z,79.09
2017-12-06T00:11:22.431Z,79.42
2017-12-06T00:13:55.701Z,79.46
2017-12-06T00:16:23.190Z,79.79
2017-12-06T00:18:50.656Z,79.98
2017-12-06T00:21:18.125Z,80.12
2017-12-06T00:23:45.604Z,80.03
2017-12-06T00:26:13.073Z,79.40
2017-12-06T00:28:40.537Z,79.18
2017-12-06T00:31:08.021Z,80.06
2017-12-06T00:33:35.481Z,80.09
2017-12-06T00:36:02.945Z,79.46
2017-12-06T00:38:30.424Z,79.96
2017-12-06T00:40:57.896Z,79.92
2017-12-06T00:43:25.380Z,80.06
2017-12-06T00:45:52.845Z,80.07
2017-12-06T00:48:20.333Z,79.96
2017-12-06T00:50:47.801Z,79.32
2017-12-06T00:53:15.285Z,78.89
2017-12-06T00:55:42.749Z,78.97
2017-12-06T00:58:10.237Z,79.32
2017-12-06T01:00:45.213Z,79.20
2017-12-06T01:03:12.700Z,78.61
2017-12-06T01:05:40.163Z,79.27
2017-12-06T01:08:07.640Z,79.62
2017-12-06T01:10:35.110Z,79.60
2017-12-06T01:13:02.592Z,79.43
2017-12-06T01:15:30.056Z,78.98
2017-12-06T01:17:57.516Z,79.35
2017-12-06T01:20:25.001Z,79.34
2017-12-06T01:22:52.469Z,79.19
2017-12-06T01:25:19.932Z,79.63
2017-12-06T01:27:47.421Z,79.01
2017-12-06T01:30:14.884Z,78.78
2017-12-06T01:32:42.349Z,79.24
2017-12-06T01:35:09.837Z,78.83
2017-12-06T01:37:37.309Z,79.26
2017-12-06T01:40:04.773Z,79.33
2017-12-06T01:42:32.260Z,79.57
2017-12-06T01:44:59.729Z,79.89
2017-12-06T01:47:27.216Z,79.57
2017-12-06T01:49:54.685Z,79.32
2017-12-06T01:52:22.169Z,79.76
2017-12-06T01:54:49.644Z,79.44
2017-12-06T01:57:17.118Z,79.17
2017-12-06T01:59:44.616Z,79.49
2017-12-06T02:02:12.081Z,79.48
2017-12-06T02:04:39.556Z,79.44
2017-12-06T02:07:07.234Z,78.68
2017-12-06T02:09:34.696Z,78.70
2017-12-06T02:12:02.176Z,78.87
2017-12-06T02:14:29.745Z,78.86
2017-12-06T02:16:57.308Z,79.00
2017-12-06T02:19:24.789Z,79.18
2017-12-06T02:21:52.253Z,79.33
2017-12-06T02:24:19.725Z,79.65
2017-12-06T02:26:47.211Z,79.81
2017-12-06T02:29:14.677Z,79.45
2017-12-06T02:31:42.144Z,79.33
2017-12-06T02:34:09.624Z,79.43
2017-12-06T02:36:37.085Z,79.54
2017-12-06T02:39:04.557Z,79.81
2017-12-06T02:41:43.866Z,79.19
2017-12-06T02:44:23.113Z,79.41
2017-12-06T02:46:50.592Z,79.17
2017-12-06T02:49:18.057Z,79.11
2017-12-06T02:51:45.531Z,79.32
2017-12-06T02:54:13.021Z,79.56
2017-12-06T02:56:40.512Z,79.66
2017-12-06T02:59:07.981Z,79.86
2017-12-06T03:01:35.476Z,79.45
2017-12-06T03:04:02.944Z,79.56
2017-12-06T03:06:30.433Z,79.52
2017-12-06T03:08:57.905Z,79.54
2017-12-06T03:11:25.390Z,79.39
2017-12-06T03:13:52.861Z,79.55
2017-12-06T03:16:20.325Z,79.41
2017-12-06T03:18:47.809Z,79.66
2017-12-06T03:21:15.321Z,79.64
2017-12-06T03:23:42.816Z,79.80
2017-12-06T03:26:10.300Z,79.67
2017-12-06T03:28:37.765Z,79.70
2017-12-06T03:31:05.307Z,79.94
2017-12-06T03:33:32.739Z,79.69
2017-12-06T03:36:00.270Z,79.29
2017-12-06T03:38:27.744Z,79.70
2017-12-06T03:40:55.229Z,79.83
2017-12-06T03:43:22.701Z,79.61
2017-12-06T03:45:50.184Z,79.66
2017-12-06T03:48:17.648Z,79.75
2017-12-06T03:50:45.128Z,79.76
2017-12-06T03:53:12.593Z,79.87
2017-12-06T03:55:40.072Z,79.61
2017-12-06T03:58:07.536Z,80.19
2017-12-06T04:00:35.021Z,80.11
2017-12-06T04:03:02.486Z,80.22
2017-12-06T04:05:29.969Z,80.25
2017-12-06T04:07:57.432Z,80.07
2017-12-06T04:10:24.916Z,80.13
2017-12-06T04:12:52.376Z,80.11
2017-12-06T04:15:19.852Z,80.12
2017-12-06T04:17:47.321Z,80.12
2017-12-06T04:20:14.806Z,79.91
2017-12-06T04:22:42.277Z,80.24
2017-12-06T04:25:09.760Z,80.32
2017-12-06T04:27:37.224Z,80.52
2017-12-06T04:30:04.705Z,80.23
2017-12-06T04:32:32.168Z,80.00
2017-12-06T04:34:59.632Z,79.83
2017-12-06T04:37:27.112Z,80.08
2017-12-06T04:39:54.581Z,80.15
2017-12-06T04:42:22.044Z,80.57
2017-12-06T04:44:49.528Z,80.72
2017-12-06T04:47:16.993Z,80.65
2017-12-06T04:49:44.458Z,80.75
2017-12-06T04:52:11.945Z,80.93
2017-12-06T04:54:39.415Z,81.15
2017-12-06T04:57:06.880Z,80.58
2017-12-06T04:59:34.361Z,80.98
2017-12-06T05:02:01.829Z,81.17
2017-12-06T05:04:29.343Z,81.30
2017-12-06T05:06:56.902Z,81.22
2017-12-06T05:09:24.381Z,81.40
2017-12-06T05:11:51.853Z,81.24
2017-12-06T05:14:19.337Z,81.43
2017-12-06T05:16:46.801Z,80.89
2017-12-06T05:19:14.275Z,81.36
2017-12-06T05:21:41.853Z,81.16
2017-12-06T05:24:09.321Z,81.39
2017-12-06T05:26:36.820Z,81.43
2017-12-06T05:29:04.307Z,81.23
2017-12-06T05:31:31.772Z,81.08
2017-12-06T05:33:59.240Z,81.37
2017-12-06T05:36:26.721Z,80.85
2017-12-06T05:38:54.189Z,81.17
2017-12-06T05:41:21.689Z,80.88
2017-12-06T05:43:49.165Z,81.28
2017-12-06T05:46:16.653Z,81.42
2017-12-06T05:48:44.116Z,81.10
2017-12-06T05:51:11.600Z,80.52
2017-12-06T05:53:39.064Z,80.97
2017-12-06T05:56:06.558Z,80.91
2017-12-06T05:58:34.020Z,80.93
2017-12-06T06:01:01.496Z,80.55
2017-12-06T06:03:28.957Z,80.30
2017-12-06T06:05:56.441Z,80.36
2017-12-06T06:08:23.904Z,80.53
2017-12-06T06:10:51.388Z,80.64
2017-12-06T06:13:18.852Z,81.14
2017-12-06T06:15:46.316Z,80.60
2017-12-06T06:18:13.802Z,81.15
2017-12-06T06:20:41.269Z,81.21
2017-12-06T06:23:08.737Z,81.33
2017-12-06T06:25:36.223Z,81.10
2017-12-06T06:28:03.693Z,81.04
2017-12-06T06:30:31.177Z,81.17
2017-12-06T06:32:58.647Z,81.33
2017-12-06T06:35:26.148Z,80.80
2017-12-06T06:37:53.616Z,81.00
2017-12-06T06:40:21.122Z,80.59
2017-12-06T06:42:48.626Z,80.66
2017-12-06T06:45:16.120Z,80.55
2017-12-06T06:47:43.602Z,80.69
2017-12-06T06:50:11.069Z,80.93
2017-12-06T06:52:38.558Z,80.56
2017-12-06T06:55:06.029Z,80.38
2017-12-06T06:57:33.501Z,80.33
2017-12-06T07:00:00.991Z,80.58
2017-12-06T07:02:28.453Z,80.82
2017-12-06T07:04:55.918Z,80.47
2017-12-06T07:07:23.401Z,80.32
2017-12-06T07:09:50.877Z,80.10
2017-12-06T07:12:18.345Z,80.43
2017-12-06T07:14:45.836Z,79.54
2017-12-06T07:17:13.300Z,79.61
2017-12-06T07:19:56.457Z,80.00
2017-12-06T07:22:23.936Z,79.59
2017-12-06T07:24:51.489Z,79.65
2017-12-06T07:27:18.957Z,79.48
2017-12-06T07:29:46.440Z,79.68
2017-12-06T07:32:14.089Z,79.27
2017-12-06T07:34:41.603Z,78.94
2017-12-06T07:37:09.060Z,79.83
2017-12-06T07:39:36.524Z,78.83
2017-12-06T07:42:03.988Z,79.63
2017-12-06T07:44:31.861Z,79.84
2017-12-06T07:46:59.330Z,79.42
2017-12-06T07:49:26.796Z,79.57
2017-12-06T07:51:54.276Z,78.45
2017-12-06T07:54:21.761Z,78.13
2017-12-06T07:56:49.227Z,79.04
2017-12-06T07:59:16.712Z,78.99
2017-12-06T08:01:44.182Z,79.07
2017-12-06T08:04:11.667Z,78.05
2017-12-06T08:06:39.132Z,79.08
2017-12-06T08:09:06.613Z,78.44
2017-12-06T08:11:34.085Z,78.24
2017-12-06T08:14:01.573Z,78.41
2017-12-06T08:16:29.041Z,78.12
2017-12-06T08:18:56.512Z,77.83
2017-12-06T08:21:24.000Z,77.51
2017-12-06T08:23:51.462Z,77.39
2017-12-06T08:26:18.934Z,77.76
2017-12-06T08:28:46.519Z,76.66
2017-12-06T08:31:13.986Z,76.76
2017-12-06T08:33:41.457Z,77.53
2017-12-06T08:36:08.943Z,76.34
2017-12-06T08:38:36.411Z,76.13
2017-12-06T08:41:03.906Z,76.12
2017-12-06T08:43:31.376Z,75.61
2017-12-06T08:45:58.864Z,76.73
2017-12-06T08:48:26.333Z,75.42
2017-12-06T08:50:53.817Z,75.77
2017-12-06T08:53:20.816Z,76.56
2017-12-06T08:55:47.832Z,76.02
2017-12-06T08:58:14.832Z,75.86
2017-12-06T09:00:41.852Z,75.75
2017-12-06T09:03:08.852Z,75.82
2017-12-06T09:05:35.868Z,75.08
2017-12-06T09:08:02.868Z,75.31
2017-12-06T09:10:29.889Z,75.61
2017-12-06T09:12:56.911Z,76.61
2017-12-06T09:15:23.936Z,75.76
2017-12-06T09:17:50.952Z,74.60
2017-12-06T09:20:17.962Z,75.94
2017-12-06T09:22:44.992Z,75.62
2017-12-06T09:25:11.991Z,74.56
2017-12-06T09:27:39.024Z,74.81
2017-12-06T09:30:06.028Z,75.04
2017-12-06T09:32:33.057Z,74.34
2017-12-06T09:35:00.059Z,75.22
2017-12-06T09:37:27.092Z,74.84
2017-12-06T09:39:54.099Z,75.67
2017-12-06T09:42:21.116Z,75.49
2017-12-06T09:44:48.116Z,75.63
2017-12-06T09:47:15.120Z,75.19
2017-12-06T09:49:42.148Z,74.04
2017-12-06T09:52:09.154Z,75.39
2017-12-06T09:54:36.155Z,75.42
2017-12-06T09:57:03.184Z,74.88
2017-12-06T09:59:30.179Z,74.68
2017-12-06T10:01:57.205Z,74.51
2017-12-06T10:04:24.223Z,73.22
2017-12-06T10:06:51.224Z,74.22
2017-12-06T10:09:18.228Z,73.70
2017-12-06T10:11:45.248Z,73.54
2017-12-06T10:14:12.244Z,74.01
2017-12-06T10:16:39.290Z,74.65
2017-12-06T10:19:06.287Z,74.43
2017-12-06T10:21:33.313Z,73.73
2017-12-06T10:24:00.316Z,74.19
2017-12-06T10:26:27.339Z,74.04
2017-12-06T10:28:54.346Z,74.87
2017-12-06T10:31:21.360Z,74.93
2017-12-06T10:33:48.360Z,76.83
2017-12-06T10:36:15.385Z,76.82
2017-12-06T10:38:42.384Z,76.96
2017-12-06T10:41:09.409Z,77.44
2017-12-06T10:43:36.411Z,78.01
2017-12-06T10:46:03.432Z,77.86
2017-12-06T10:48:30.432Z,77.82
2017-12-06T10:50:57.547Z,77.86
2017-12-06T10:53:24.548Z,77.45
2017-12-06T10:55:51.580Z,76.39
2017-12-06T10:58:18.632Z,75.19
2017-12-06T11:00:45.600Z,76.30
2017-12-06T11:03:12.637Z,76.78
2017-12-06T11:05:39.646Z,77.08
2017-12-06T11:08:06.696Z,77.23
2017-12-06T11:10:33.704Z,77.04
2017-12-06T11:13:00.708Z,77.21
2017-12-06T11:15:27.724Z,76.77
2017-12-06T11:17:54.732Z,77.58
2017-12-06T11:20:21.788Z,77.51
2017-12-06T11:22:48.792Z,77.00
2017-12-06T11:25:15.814Z,77.73
2017-12-06T11:27:42.812Z,77.20
2017-12-06T11:30:09.837Z,76.68
2017-12-06T11:32:36.836Z,76.30
2017-12-06T11:35:03.832Z,76.20
2017-12-06T11:37:30.852Z,75.24
2017-12-06T11:39:57.855Z,74.25
2017-12-06T11:42:24.852Z,73.67
2017-12-06T11:44:51.868Z,74.38
2017-12-06T11:47:18.871Z,74.34
2017-12-06T11:49:45.876Z,74.91
2017-12-06T11:52:12.896Z,74.42
2017-12-06T11:54:39.900Z,73.58
2017-12-06T11:57:06.901Z,74.51
2017-12-06T11:59:33.919Z,73.86
2017-12-06T12:02:00.956Z,74.38
2017-12-06T12:04:27.976Z,74.68
2017-12-06T12:06:54.980Z,74.42
2017-12-06T12:09:21.992Z,74.71
2017-12-06T12:11:49.044Z,74.66
2017-12-06T12:14:16.075Z,75.09
2017-12-06T12:16:43.085Z,75.05
2017-12-06T12:19:10.081Z,75.36
2017-12-06T12:21:37.103Z,75.25
2017-12-06T12:24:04.110Z,74.64
2017-12-06T12:26:31.117Z,74.83
2017-12-06T12:28:58.145Z,75.96
2017-12-06T12:31:25.140Z,74.61
2017-12-06T12:33:52.181Z,74.70
2017-12-06T12:36:19.184Z,74.88
2017-12-06T12:38:46.214Z,75.25
2017-12-06T12:41:13.216Z,75.33
2017-12-06T12:43:40.241Z,75.82
2017-12-06T12:46:07.246Z,74.48
2017-12-06T12:48:34.271Z,74.63
2017-12-06T12:51:01.280Z,75.21
2017-12-06T12:53:28.296Z,74.73
2017-12-06T12:55:55.297Z,76.15
2017-12-06T12:58:22.322Z,76.14
2017-12-06T13:00:50.111Z,75.81
2017-12-06T13:03:17.132Z,75.13
2017-12-06T13:05:44.146Z,75.30
2017-12-06T13:08:11.157Z,75.20
2017-12-06T13:10:38.233Z,75.94
2017-12-06T13:13:05.232Z,75.75
2017-12-06T13:15:32.248Z,75.98
2017-12-06T13:17:59.252Z,75.78
2017-12-06T13:20:26.269Z,76.17
2017-12-06T13:22:53.269Z,76.29
2017-12-06T13:25:20.288Z,76.25
2017-12-06T13:27:47.296Z,75.98
2017-12-06T13:30:14.312Z,76.51
2017-12-06T13:32:41.308Z,76.45
2017-12-06T13:35:08.352Z,76.45
2017-12-06T13:37:35.349Z,76.87
2017-12-06T13:40:02.364Z,75.85
2017-12-06T13:42:29.372Z,75.31
2017-12-06T13:44:56.414Z,75.09
2017-12-06T13:47:23.425Z,74.71
2017-12-06T13:49:50.441Z,75.39
2017-12-06T13:52:17.444Z,74.70
2017-12-06T13:54:44.930Z,76.02
2017-12-06T13:57:12.401Z,75.17
2017-12-06T13:59:39.890Z,76.03
2017-12-06T14:02:07.378Z,76.37
2017-12-06T14:04:34.904Z,76.55
2017-12-06T14:07:02.406Z,76.55
2017-12-06T14:09:29.869Z,76.33
2017-12-06T14:11:57.337Z,75.97
2017-12-06T14:14:24.828Z,76.10
2017-12-06T14:16:52.294Z,76.25
2017-12-06T14:19:19.776Z,76.49
2017-12-06T14:21:47.241Z,76.61
2017-12-06T14:24:14.731Z,76.77
2017-12-06T14:26:42.197Z,76.70
2017-12-06T14:29:09.683Z,76.76
2017-12-06T14:31:37.145Z,76.58
2017-12-06T14:34:04.629Z,76.30
2017-12-06T14:36:32.096Z,76.95
2017-12-06T14:38:59.583Z,77.31
2017-12-06T14:41:27.049Z,77.23
2017-12-06T14:43:54.537Z,77.44
2017-12-06T14:46:22.082Z,77.22
2017-12-06T14:48:49.561Z,77.15
2017-12-06T14:51:17.025Z,77.13
2017-12-06T14:53:44.508Z,76.75
2017-12-06T14:56:11.977Z,76.25
2017-12-06T14:58:39.456Z,77.14
2017-12-06T15:01:06.934Z,77.05
2017-12-06T15:03:34.422Z,77.36
2017-12-06T15:06:01.888Z,77.23
2017-12-06T15:08:29.364Z,76.80
2017-12-06T15:10:56.873Z,77.53
2017-12-06T15:13:24.344Z,77.67
2017-12-06T15:15:51.828Z,77.50
2017-12-06T15:18:19.299Z,77.71
2017-12-06T15:20:46.814Z,77.90
2017-12-06T15:23:14.351Z,78.10
2017-12-06T15:25:41.877Z,78.03
2017-12-06T15:28:09.388Z,78.15
2017-12-06T15:30:36.913Z,78.34
2017-12-06T15:33:04.389Z,78.46
2017-12-06T15:35:31.945Z,78.79
2017-12-06T15:38:00.305Z,78.14
2017-12-06T15:40:27.841Z,78.54
2017-12-06T15:42:55.317Z,78.54
2017-12-06T15:45:22.800Z,78.76
2017-12-06T15:47:50.377Z,78.26
2017-12-06T15:50:17.869Z,78.79
2017-12-06T15:52:45.349Z,78.65
2017-12-06T15:55:12.881Z,78.62
2017-12-06T15:57:40.349Z,78.43
2017-12-06T16:00:07.849Z,78.83
2017-12-06T16:02:35.312Z,78.98
2017-12-06T16:05:02.885Z,78.59
2017-12-06T16:07:30.389Z,79.01
2017-12-06T16:09:57.866Z,78.89
2017-12-06T16:12:25.340Z,78.97
2017-12-06T16:14:52.832Z,79.30
2017-12-06T16:17:20.301Z,79.41
2017-12-06T16:19:47.785Z,79.28
2017-12-06T16:22:15.289Z,79.34
2017-12-06T16:24:42.769Z,79.45
2017-12-06T16:27:10.293Z,79.19
2017-12-06T16:29:37.781Z,79.09
2017-12-06T16:32:05.248Z,79.40
2017-12-06T16:34:32.746Z,79.73
2017-12-06T16:37:12.116Z,79.92
2017-12-06T16:39:39.596Z,79.64
2017-12-06T16:42:07.065Z,79.58
2017-12-06T16:44:34.572Z,79.75
2017-12-06T16:47:02.042Z,79.83
2017-12-06T16:49:29.524Z,80.05
2017-12-06T16:51:57.064Z,80.15
2017-12-06T16:54:24.545Z,80.12
2017-12-06T16:56:52.014Z,80.20
2017-12-06T16:59:19.497Z,80.33
2017-12-06T17:01:46.965Z,79.97
2017-12-06T17:04:14.430Z,80.15
2017-12-06T17:06:41.933Z,80.31
2017-12-06T17:09:09.401Z,80.25
2017-12-06T17:11:36.865Z,80.19
2017-12-06T17:14:04.348Z,79.97
2017-12-06T17:16:31.813Z,79.73
2017-12-06T17:18:59.295Z,80.21
2017-12-06T17:21:26.765Z,80.29
2017-12-06T17:23:54.244Z,79.82
2017-12-06T17:26:21.716Z,79.74
2017-12-06T17:29:01.141Z,80.03
2017-12-06T17:31:40.562Z,79.24
2017-12-06T17:34:08.025Z,79.97
2017-12-06T17:36:35.489Z,80.46
2017-12-06T17:39:02.974Z,80.08
2017-12-06T17:41:31.443Z,79.73
2017-12-06T17:43:58.913Z,79.06
2017-12-06T17:46:26.397Z,79.45
2017-12-06T17:48:53.863Z,79.33
2017-12-06T17:51:21.333Z,79.63
2017-12-06T17:53:48.817Z,79.69
2017-12-06T17:56:16.299Z,80.73
2017-12-06T17:58:43.765Z,80.91
2017-12-06T18:01:11.253Z,81.23
2017-12-06T18:03:38.722Z,80.73
2017-12-06T18:06:06.192Z,80.61
2017-12-06T18:08:33.679Z,81.02
2017-12-06T18:11:01.148Z,81.35
2017-12-06T18:13:28.649Z,81.31
2017-12-06T18:15:56.133Z,80.83
2017-12-06T18:18:23.619Z,80.44
2017-12-06T18:20:51.091Z,80.92
2017-12-06T18:23:18.613Z,80.62
2017-12-06T18:25:46.081Z,81.01
2017-12-06T18:28:13.626Z,81.15
2017-12-06T18:30:41.116Z,80.21
2017-12-06T18:33:08.613Z,80.93
2017-12-06T18:35:36.100Z,80.77
2017-12-06T18:38:03.598Z,81.33
2017-12-06T18:40:31.060Z,81.68
2017-12-06T18:42:58.545Z,80.78
2017-12-06T18:45:26.009Z,80.33
2017-12-06T18:47:53.537Z,81.10
2017-12-06T18:50:21.029Z,80.52
2017-12-06T18:52:48.508Z,80.48
2017-12-06T18:55:15.973Z,81.25
2017-12-06T18:57:43.545Z,80.99
2017-12-06T19:00:11.016Z,79.88
2017-12-06T19:02:38.481Z,81.02
2017-12-06T19:05:05.961Z,81.18
2017-12-06T19:07:33.426Z,80.51
2017-12-06T19:10:00.922Z,79.63
2017-12-06T19:12:28.400Z,80.02
2017-12-06T19:14:55.865Z,80.52
2017-12-06T19:17:23.349Z,80.12
2017-12-06T19:19:50.812Z,80.67
2017-12-06T19:22:18.301Z,80.47
2017-12-06T19:24:45.777Z,81.28
2017-12-06T19:27:13.298Z,80.39
2017-12-06T19:29:40.769Z,79.86
2017-12-06T19:32:08.254Z,79.83
2017-12-06T19:34:35.750Z,80.71
2017-12-06T19:37:03.248Z,81.43
2017-12-06T19:39:30.725Z,81.78
2017-12-06T19:41:58.208Z,81.03
2017-12-06T19:44:25.673Z,80.18
2017-12-06T19:46:53.161Z,80.39
2017-12-06T19:49:20.632Z,80.12
2017-12-06T19:51:48.134Z,80.76
2017-12-06T19:54:15.617Z,80.69
2017-12-06T19:56:43.089Z,80.70
2017-12-06T19:59:10.600Z,80.64
2017-12-06T20:01:38.066Z,80.86
2017-12-06T20:04:05.551Z,80.31
2017-12-06T20:06:33.017Z,80.53
2017-12-06T20:09:00.498Z,80.63
2017-12-06T20:11:27.963Z,81.09
2017-12-06T20:13:55.491Z,80.71
2017-12-06T20:16:22.933Z,81.07
2017-12-06T20:18:50.424Z,80.31
2017-12-06T20:21:17.916Z,81.46
2017-12-06T20:23:45.422Z,81.63
2017-12-06T20:26:12.889Z,81.22
2017-12-06T20:28:40.481Z,80.55
2017-12-06T20:31:07.945Z,80.52
2017-12-06T20:33:35.425Z,80.08
2017-12-06T20:36:02.893Z,81.38
2017-12-06T20:38:30.377Z,80.53
2017-12-06T20:40:57.860Z,79.56
2017-12-06T20:43:25.338Z,79.59
2017-12-06T20:45:52.801Z,79.62
2017-12-06T20:48:20.284Z,79.74
2017-12-06T20:50:47.758Z,79.16
2017-12-06T20:53:15.240Z,79.61
2017-12-06T20:55:42.708Z,79.50
2017-12-06T20:58:10.173Z,80.69
2017-12-06T21:00:37.660Z,81.40
2017-12-06T21:03:05.133Z,81.83
2017-12-06T21:05:33.009Z,81.55
2017-12-06T21:08:00.797Z,81.75
2017-12-06T21:10:28.527Z,81.62
2017-12-06T21:12:56.106Z,81.96
2017-12-06T21:15:23.577Z,81.67
2017-12-06T21:17:51.064Z,80.74
2017-12-06T21:20:18.529Z,81.06
2017-12-06T21:22:45.997Z,80.89
2017-12-06T21:25:13.497Z,81.56
2017-12-06T21:27:40.967Z,81.79
2017-12-06T21:30:08.457Z,81.72
2017-12-06T21:32:35.941Z,81.55
2017-12-06T21:35:03.414Z,81.53
2017-12-06T21:37:30.880Z,80.82
2017-12-06T21:39:58.369Z,80.81
2017-12-06T21:42:25.854Z,81.34
2017-12-06T21:44:53.349Z,80.89
2017-12-06T21:47:20.838Z,81.04
2017-12-06T21:49:48.300Z,79.85
2017-12-06T21:52:15.769Z,79.41
2017-12-06T21:54:43.261Z,80.52
2017-12-06T21:57:10.733Z,80.05
2017-12-06T21:59:38.197Z,81.99
2017-12-06T22:02:05.768Z,82.53
2017-12-06T22:04:33.238Z,82.82
2017-12-06T22:07:00.727Z,83.04
2017-12-06T22:09:28.196Z,83.16
2017-12-06T22:11:55.689Z,83.18
2017-12-06T22:14:23.163Z,82.57
2017-12-06T22:16:50.645Z,83.02
2017-12-06T22:19:18.131Z,81.63
2017-12-06T22:21:45.602Z,81.20
2017-12-06T22:24:13.082Z,81.16
2017-12-06T22:26:40.573Z,82.00
2017-12-06T22:29:08.049Z,82.01
2017-12-06T22:31:35.525Z,82.16
2017-12-06T22:34:03.019Z,81.68
2017-12-06T22:36:30.486Z,83.07
2017-12-06T22:38:57.961Z,84.13
2017-12-06T22:41:25.451Z,83.44
2017-12-06T22:43:52.925Z,82.85
2017-12-06T22:46:20.402Z,82.43
2017-12-06T22:48:47.892Z,82.69
2017-12-06T22:51:15.360Z,82.96
2017-12-06T22:53:42.834Z,82.52
2017-12-06T22:56:10.334Z,83.42
2017-12-06T22:58:37.809Z,84.13
2017-12-06T23:01:05.279Z,84.40
2017-12-06T23:03:32.808Z,83.33
2017-12-06T23:06:00.279Z,84.12
2017-12-06T23:08:27.768Z,83.71
2017-12-06T23:10:55.236Z,83.89
2017-12-06T23:13:22.730Z,83.69
2017-12-06T23:15:50.299Z,84.35
2017-12-06T23:18:17.814Z,84.21
2017-12-06T23:20:45.276Z,84.13
2017-12-06T23:23:12.756Z,83.80
2017-12-06T23:25:40.229Z,84.70
2017-12-06T23:28:07.717Z,84.76
2017-12-06T23:30:35.247Z,84.63
2017-12-06T23:33:02.720Z,85.73
2017-12-06T23:35:30.217Z,85.72
2017-12-06T23:37:57.685Z,85.53
2017-12-06T23:40:25.157Z,85.35
2017-12-06T23:42:52.649Z,85.06
2017-12-06T23:45:20.113Z,85.58
2017-12-06T23:47:47.587Z,87.91
2017-12-06T23:50:15.081Z,88.46
2017-12-06T23:52:42.557Z,87.89
2017-12-06T23:55:10.029Z,86.41
2017-12-06T23:57:37.519Z,86.00
